• Join FlightAware (Why Join?)
  • Login
  • US Flag 
Gobble Gobble! 
11:15PM EST


 

Airport Tracker/Info


-or-


 

Live Flight TrackerFlight Track Log ✈ ASQ6041 ✈ 14-Apr-2013 ✈ KLNK - KDEN

Flight Track Log - Related Links

Times and Time Zones

All times are in EDT time to prevent confusion due to time zone crossing. See the ASQ6041 flight status page for this flight to view local times or setup timezone preferences in your user account.

Time Position Orientation Groundspeed Altitude Reporting Facility
EDT Latitude Longitude Course Direction KTS MPH feet Rate Location/Type
02:06PM 40.8844 -96.8239 301° West 193 222 4,200  Level Minneapolis Center
02:07PM 40.8953 -96.8447 305° West 229 264 4,300 2,460 Climbing Minneapolis Center
02:08PM 40.8753 -96.9503 256° West 245 282 7,700 3,000 Climbing Minneapolis Center
02:09PM 40.8594 -97.0358 256° West 242 278 10,500 1,740 Climbing Minneapolis Center
02:10PM 40.8417 -97.1378 257° West 279 321 11,300 1,260 Climbing Minneapolis Center
02:11PM 40.8217 -97.2539 257° West 316 364 13,100 1,980 Climbing Minneapolis Center
02:12PM 40.8003 -97.3686 256° West 322 371 15,400 1,920 Climbing Minneapolis Center
02:13PM 40.7814 -97.4767 257° West 320 368 17,100 1,920 Climbing Minneapolis Center
02:14PM 40.7564 -97.6169 257° West 324 373 19,400 1,800 Climbing Minneapolis Center
02:15PM 40.7339 -97.7389 256° West 336 387 20,800 1,320 Climbing Minneapolis Center
02:16PM 40.7103 -97.8642 256° West 346 398 22,200 1,440 Climbing Minneapolis Center
02:17PM 40.6875 -97.9903 257° West 351 404 23,800 1,380 Climbing Minneapolis Center
02:18PM 40.6681 -98.0894 256° West 350 403 25,100 1,560 Climbing Minneapolis Center
02:19PM 40.6408 -98.2358 256° West 345 397 27,000 1,680 Climbing Minneapolis Center
02:20PM 40.6181 -98.3542 256° West 336 387 28,600 1,560 Climbing Minneapolis Center
02:21PM 40.6092 -98.4717 264° West 333 383 30,200 1,500 Climbing Minneapolis Center
02:22PM 40.6197 -98.5933 277° West 334 384 31,800 840 Climbing Minneapolis Center
02:23PM 40.6306 -98.7161 277° West 334 384 32,000 60 Climbing Minneapolis Center
02:24PM 40.6447 -98.8814 276° West 356 410 32,000  Level Minneapolis Center
02:25PM 40.6575 -99.0278 277° West 378 435 32,000  Level Minneapolis Center
02:26PM 40.6714 -99.1731 277° West 391 450 32,000  Level Minneapolis Center
02:27PM 40.6750 -99.2311 275° West 395 455 32,000  Level Denver Center
02:28PM 40.6872 -99.3736 276° West 392 451 32,000  Level Denver Center
02:29PM 40.7039 -99.5156 279° West 390 449 32,000  Level Denver Center
02:30PM 40.7731 -99.6281 309° West 389 448 32,000  Level Denver Center
02:31PM 40.8450 -99.7375 311° West 392 451 32,000  Level Denver Center
02:32PM 40.9256 -99.8625 310° West 400 460 32,000  Level Denver Center
02:33PM 40.9936 -99.9703 310° West 400 460 32,000  Level Denver Center
02:34PM 41.0725 -100.0936 310° West 397 457 32,000  Level Denver Center
02:35PM 41.1397 -100.1992 310° West 394 453 32,000  Level Denver Center
02:36PM 41.2200 -100.3264 310° West 402 463 32,000  Level Denver Center
02:37PM 41.2581 -100.4517 292° West 390 449 32,000  Level Denver Center
02:38PM 41.2175 -100.5908 249° West 372 428 32,000  Level Denver Center
02:39PM 41.1350 -100.6656 214° Southwest 378 435 32,000  Level Denver Center
02:40PM 41.0339 -100.7453 211° Southwest 380 437 32,000  Level Denver Center
02:41PM 40.9478 -100.8119 210° Southwest 379 436 32,000  Level Denver Center
02:42PM 40.8492 -100.8875 210° Southwest 375 432 32,000  Level Denver Center
02:43PM 40.7658 -100.9603 213° Southwest 384 442 32,000  Level Denver Center
02:44PM 40.7311 -101.1017 252° West 369 425 32,000  Level Denver Center
02:45PM 40.7083 -101.2283 257° West 370 426 32,000  Level Denver Center
02:46PM 40.6814 -101.3772 257° West 373 429 32,000  Level Denver Center
02:47PM 40.6583 -101.5028 256° West 369 425 32,000  Level Denver Center
02:48PM 40.6314 -101.6489 256° West 368 423 32,000  Level Denver Center
02:49PM 40.6081 -101.7747 256° West 369 425 32,000  Level Denver Center
02:50PM 40.5850 -101.9006 256° West 369 425 32,000  Level Denver Center
02:51PM 40.5569 -102.0467 256° West 370 426 32,000  Level Denver Center
02:52PM 40.5347 -102.1722 257° West 369 425 32,000  Level Denver Center
02:53PM 40.5069 -102.3175 256° West 367 422 32,000 -720 Level Denver Center
02:55PM 40.4739 -102.4831 255° West 367 422 30,500 -1,320 Descending Denver Center
02:56PM 40.4497 -102.6053 255° West 362 417 29,100 -1,440 Descending Denver Center
02:57PM 40.4233 -102.7458 256° West 367 422 27,600 -1,440 Descending Denver Center
02:58PM 40.3992 -102.8778 257° West 369 425 26,200 -1,380 Descending Denver Center
02:59PM 40.3733 -103.0061 255° West 363 418 24,800 -1,380 Descending Denver Center
03:00PM 40.3475 -103.1278 254° West 347 399 23,400 -1,440 Descending Denver Center
03:01PM 40.3222 -103.2514 255° West 347 399 21,900 -1,440 Descending Denver Center
03:02PM 40.2975 -103.3750 255° West 351 404 20,500 -1,260 Descending Denver Center
03:03PM 40.2725 -103.4983 255° West 348 400 19,400 -1,080 Descending Denver Center
03:04PM 40.2481 -103.6206 255° West 345 397 18,400 -1,260 Descending Denver Center
03:05PM 40.2208 -103.7583 256° West 350 403 16,900 -1,260 Descending Denver Center
03:06PM 40.1925 -103.8703 252° West 323 372 15,900 -1,020 Descending Denver Center
03:07PM 40.1447 -103.9822 241° Southwest 326 375 14,900 -1,080 Descending Denver Center
03:08PM 40.1328 -104.0828 261° West 277 319 13,800 -960 Descending Denver Center
03:09PM 40.0978 -104.1469 235° Southwest 248 285 13,000 -420 Descending Denver Center
03:10PM 40.0292 -104.1489 181° South 227 261 13,000 -300 Level Denver Center
03:11PM 39.9736 -104.1628 191° South 209 241 12,500 -840 Descending Denver Center
03:12PM 39.9281 -104.1939 208° Southwest 187 215 11,300 -1,140 Descending Denver Center
03:13PM 39.8967 -104.2464 232° Southwest 172 198 10,200 -660 Descending Denver Center
03:14PM 39.8725 -104.2983 239° Southwest 172 198 10,000 -480 Descending Denver Center
03:15PM 39.8744 -104.3586 272° West 167 192 9,300 -840 Descending Denver Center
03:16PM 39.8833 -104.4000 286° West 156 180 8,700 -840 Descending Denver TRACON
03:17PM 39.8833 -104.4333 270° West 141 162 8,100 -780 Descending Denver TRACON
03:18PM 39.8833 -104.4833 270° West 132 152 7,300 -780 Descending Denver TRACON
03:19PM 39.8833 -104.5333 270° West 135 155 6,600 -780 Descending Denver TRACON
03:20PM 39.8833 -104.5833 270° West 132 152 5,900 -480 Descending Denver TRACON
03:21PM 39.8772 -104.6458 263° West 104 120 5,300 -360 Descending Denver Center
03:23PM 39.8617 -104.6732 166° South  Level Estimated
03:30PM 39.8617 -104.6732 North  Level Estimated
03:31PM 39.8617 -104.6732 North  Level Estimated